sensor_id;sensor_type;location;lat;lon;timestamp;P1;durP1;ratioP1;P2;durP2;ratioP2
71042;SDS011;58696;52.134;5.500;2022-10-16T00:02:21;6.50;;;1.70;;
71042;SDS011;58696;52.134;5.500;2022-10-16T00:04:51;2.50;;;1.70;;
71042;SDS011;58696;52.134;5.500;2022-10-16T00:07:35;1.60;;;1.30;;
71042;SDS011;58696;52.134;5.500;2022-10-16T00:10:03;10.57;;;2.00;;
71042;SDS011;58696;52.134;5.500;2022-10-16T00:12:29;4.00;;;1.95;;
71042;SDS011;58696;52.134;5.500;2022-10-16T00:14:57;4.28;;;2.13;;
71042;SDS011;58696;52.134;5.500;2022-10-16T00:17:24;6.75;;;1.55;;
71042;SDS011;58696;52.134;5.500;2022-10-16T00:19:51;2.47;;;1.58;;
71042;SDS011;58696;52.134;5.500;2022-10-16T00:22:17;3.88;;;1.58;;
71042;SDS011;58696;52.134;5.500;2022-10-16T00:24:52;3.72;;;1.77;;
71042;SDS011;58696;52.134;5.500;2022-10-16T00:27:18;10.15;;;2.05;;
71042;SDS011;58696;52.134;5.500;2022-10-16T00:29:51;2.88;;;1.50;;
71042;SDS011;58696;52.134;5.500;2022-10-16T00:32:21;3.08;;;1.83;;
71042;SDS011;58696;52.134;5.500;2022-10-16T00:34:48;7.53;;;1.88;;
71042;SDS011;58696;52.134;5.500;2022-10-16T00:37:15;4.23;;;1.83;;
71042;SDS011;58696;52.134;5.500;2022-10-16T00:39:42;4.30;;;2.22;;
71042;SDS011;58696;52.134;5.500;2022-10-16T00:42:13;5.57;;;2.15;;
71042;SDS011;58696;52.134;5.500;2022-10-16T00:44:54;2.85;;;1.85;;
71042;SDS011;58696;52.134;5.500;2022-10-16T00:50:02;4.55;;;2.22;;
71042;SDS011;58696;52.134;5.500;2022-10-16T00:52:39;5.45;;;2.15;;
71042;SDS011;58696;52.134;5.500;2022-10-16T00:55:10;4.60;;;1.83;;
71042;SDS011;58696;52.134;5.500;2022-10-16T00:57:37;6.50;;;2.08;;
71042;SDS011;58696;52.134;5.500;2022-10-16T01:00:06;6.63;;;2.13;;
71042;SDS011;58696;52.134;5.500;2022-10-16T01:02:35;6.03;;;2.13;;
71042;SDS011;58696;52.134;5.500;2022-10-16T01:05:01;4.95;;;1.80;;
71042;SDS011;58696;52.134;5.500;2022-10-16T01:20:48;3.22;;;1.98;;
71042;SDS011;58696;52.134;5.500;2022-10-16T01:23:22;3.55;;;1.75;;
71042;SDS011;58696;52.134;5.500;2022-10-16T01:28:36;2.47;;;1.48;;
71042;SDS011;58696;52.134;5.500;2022-10-16T01:31:11;4.30;;;1.70;;
71042;SDS011;58696;52.134;5.500;2022-10-16T01:33:47;1.73;;;1.63;;
71042;SDS011;58696;52.134;5.500;2022-10-16T01:36:21;6.93;;;1.70;;
71042;SDS011;58696;52.134;5.500;2022-10-16T01:38:56;3.05;;;1.35;;
71042;SDS011;58696;52.134;5.500;2022-10-16T01:41:33;11.75;;;1.90;;
71042;SDS011;58696;52.134;5.500;2022-10-16T01:46:58;3.08;;;1.90;;
71042;SDS011;58696;52.134;5.500;2022-10-16T01:49:27;2.42;;;1.52;;
71042;SDS011;58696;52.134;5.500;2022-10-16T01:52:02;4.30;;;1.63;;
71042;SDS011;58696;52.134;5.500;2022-10-16T01:54:36;2.00;;;1.67;;
71042;SDS011;58696;52.134;5.500;2022-10-16T01:57:07;4.00;;;1.80;;
71042;SDS011;58696;52.134;5.500;2022-10-16T01:59:35;6.20;;;2.00;;
71042;SDS011;58696;52.134;5.500;2022-10-16T02:02:07;3.13;;;1.98;;
71042;SDS011;58696;52.134;5.500;2022-10-16T02:04:38;9.55;;;2.47;;
71042;SDS011;58696;52.134;5.500;2022-10-16T02:07:09;3.42;;;1.83;;
71042;SDS011;58696;52.134;5.500;2022-10-16T02:10:34;2.95;;;1.90;;
71042;SDS011;58696;52.134;5.500;2022-10-16T02:13:12;2.47;;;1.50;;
71042;SDS011;58696;52.134;5.500;2022-10-16T02:15:48;6.22;;;1.50;;
71042;SDS011;58696;52.134;5.500;2022-10-16T02:18:22;5.43;;;1.80;;
71042;SDS011;58696;52.134;5.500;2022-10-16T02:20:55;3.15;;;1.70;;
71042;SDS011;58696;52.134;5.500;2022-10-16T02:23:48;5.00;;;1.80;;
71042;SDS011;58696;52.134;5.500;2022-10-16T02:26:40;3.65;;;1.60;;
71042;SDS011;58696;52.134;5.500;2022-10-16T02:29:16;2.70;;;1.63;;
71042;SDS011;58696;52.134;5.500;2022-10-16T02:31:49;3.65;;;1.63;;
71042;SDS011;58696;52.134;5.500;2022-10-16T02:34:22;2.58;;;1.83;;
71042;SDS011;58696;52.134;5.500;2022-10-16T02:36:52;4.40;;;2.20;;
71042;SDS011;58696;52.134;5.500;2022-10-16T02:39:20;3.20;;;2.20;;
71042;SDS011;58696;52.134;5.500;2022-10-16T02:41:47;4.53;;;2.07;;
71042;SDS011;58696;52.134;5.500;2022-10-16T02:44:18;2.60;;;1.80;;
71042;SDS011;58696;52.134;5.500;2022-10-16T02:46:45;2.58;;;1.70;;
71042;SDS011;58696;52.134;5.500;2022-10-16T02:49:12;2.87;;;1.80;;
71042;SDS011;58696;52.134;5.500;2022-10-16T02:51:39;4.90;;;2.45;;
71042;SDS011;58696;52.134;5.500;2022-10-16T02:54:08;2.53;;;1.88;;
71042;SDS011;58696;52.134;5.500;2022-10-16T02:56:36;2.55;;;1.92;;
71042;SDS011;58696;52.134;5.500;2022-10-16T02:59:03;4.55;;;1.90;;
71042;SDS011;58696;52.134;5.500;2022-10-16T03:01:30;2.33;;;1.50;;
71042;SDS011;58696;52.134;5.500;2022-10-16T03:03:57;2.63;;;1.80;;
71042;SDS011;58696;52.134;5.500;2022-10-16T03:06:24;3.78;;;1.75;;
71042;SDS011;58696;52.134;5.500;2022-10-16T03:08:56;3.67;;;1.88;;
71042;SDS011;58696;52.134;5.500;2022-10-16T03:11:24;3.65;;;2.15;;
71042;SDS011;58696;52.134;5.500;2022-10-16T03:14:04;2.70;;;1.70;;
71042;SDS011;58696;52.134;5.500;2022-10-16T03:19:05;3.08;;;1.70;;
71042;SDS011;58696;52.134;5.500;2022-10-16T03:21:32;6.03;;;1.93;;
71042;SDS011;58696;52.134;5.500;2022-10-16T03:24:01;2.63;;;1.70;;
71042;SDS011;58696;52.134;5.500;2022-10-16T03:26:28;4.47;;;2.40;;
71042;SDS011;58696;52.134;5.500;2022-10-16T03:28:55;2.20;;;1.63;;
71042;SDS011;58696;52.134;5.500;2022-10-16T03:31:24;2.00;;;1.75;;
71042;SDS011;58696;52.134;5.500;2022-10-16T03:33:51;8.20;;;2.00;;
71042;SDS011;58696;52.134;5.500;2022-10-16T03:36:18;4.05;;;1.83;;
71042;SDS011;58696;52.134;5.500;2022-10-16T03:38:45;1.47;;;1.37;;
71042;SDS011;58696;52.134;5.500;2022-10-16T03:41:12;2.72;;;1.25;;
71042;SDS011;58696;52.134;5.500;2022-10-16T03:43:39;2.77;;;1.30;;
71042;SDS011;58696;52.134;5.500;2022-10-16T03:46:06;1.63;;;1.52;;
71042;SDS011;58696;52.134;5.500;2022-10-16T03:48:33;2.80;;;1.60;;
71042;SDS011;58696;52.134;5.500;2022-10-16T03:51:00;3.83;;;1.70;;
71042;SDS011;58696;52.134;5.500;2022-10-16T03:53:26;4.38;;;1.50;;
71042;SDS011;58696;52.134;5.500;2022-10-16T03:55:53;2.47;;;1.52;;
71042;SDS011;58696;52.134;5.500;2022-10-16T03:58:25;5.90;;;1.45;;
71042;SDS011;58696;52.134;5.500;2022-10-16T04:00:52;8.32;;;1.60;;
71042;SDS011;58696;52.134;5.500;2022-10-16T04:03:19;3.97;;;1.50;;
71042;SDS011;58696;52.134;5.500;2022-10-16T04:05:47;2.65;;;1.30;;
71042;SDS011;58696;52.134;5.500;2022-10-16T04:08:14;4.90;;;1.75;;
71042;SDS011;58696;52.134;5.500;2022-10-16T04:10:42;4.30;;;1.20;;
71042;SDS011;58696;52.134;5.500;2022-10-16T04:13:12;3.50;;;1.27;;
71042;SDS011;58696;52.134;5.500;2022-10-16T04:15:39;4.18;;;1.40;;
71042;SDS011;58696;52.134;5.500;2022-10-16T04:18:08;3.25;;;1.60;;
71042;SDS011;58696;52.134;5.500;2022-10-16T04:20:38;2.22;;;1.90;;
71042;SDS011;58696;52.134;5.500;2022-10-16T04:23:05;2.95;;;1.48;;
71042;SDS011;58696;52.134;5.500;2022-10-16T04:25:35;2.75;;;1.40;;
71042;SDS011;58696;52.134;5.500;2022-10-16T04:28:04;1.65;;;1.40;;
71042;SDS011;58696;52.134;5.500;2022-10-16T04:33:45;1.80;;;1.50;;
71042;SDS011;58696;52.134;5.500;2022-10-16T04:36:15;1.40;;;1.30;;
71042;SDS011;58696;52.134;5.500;2022-10-16T04:38:42;2.90;;;1.48;;
71042;SDS011;58696;52.134;5.500;2022-10-16T04:41:09;1.40;;;1.30;;
71042;SDS011;58696;52.134;5.500;2022-10-16T04:46:31;2.00;;;1.13;;
71042;SDS011;58696;52.134;5.500;2022-10-16T04:49:01;3.13;;;1.48;;
71042;SDS011;58696;52.134;5.500;2022-10-16T04:51:27;2.10;;;1.35;;
71042;SDS011;58696;52.134;5.500;2022-10-16T04:54:14;2.30;;;1.17;;
71042;SDS011;58696;52.134;5.500;2022-10-16T04:56:41;4.32;;;1.25;;
71042;SDS011;58696;52.134;5.500;2022-10-16T04:59:16;1.40;;;1.30;;
71042;SDS011;58696;52.134;5.500;2022-10-16T05:01:43;3.33;;;1.50;;
71042;SDS011;58696;52.134;5.500;2022-10-16T05:04:10;2.28;;;1.30;;
71042;SDS011;58696;52.134;5.500;2022-10-16T05:06:38;2.47;;;1.20;;
71042;SDS011;58696;52.134;5.500;2022-10-16T05:09:05;4.13;;;1.20;;
71042;SDS011;58696;52.134;5.500;2022-10-16T05:11:32;7.27;;;1.50;;
71042;SDS011;58696;52.134;5.500;2022-10-16T05:14:03;1.40;;;1.08;;
71042;SDS011;58696;52.134;5.500;2022-10-16T05:16:34;3.25;;;1.23;;
71042;SDS011;58696;52.134;5.500;2022-10-16T05:19:01;2.75;;;1.30;;
71042;SDS011;58696;52.134;5.500;2022-10-16T05:21:51;3.30;;;1.70;;
71042;SDS011;58696;52.134;5.500;2022-10-16T05:24:19;3.10;;;1.30;;
71042;SDS011;58696;52.134;5.500;2022-10-16T05:26:51;4.60;;;1.45;;
71042;SDS011;58696;52.134;5.500;2022-10-16T05:29:20;2.28;;;1.40;;
71042;SDS011;58696;52.134;5.500;2022-10-16T05:31:51;2.85;;;1.40;;
71042;SDS011;58696;52.134;5.500;2022-10-16T05:34:19;4.93;;;1.55;;
71042;SDS011;58696;52.134;5.500;2022-10-16T05:36:47;4.20;;;1.75;;
71042;SDS011;58696;52.134;5.500;2022-10-16T05:39:26;2.38;;;1.60;;
71042;SDS011;58696;52.134;5.500;2022-10-16T05:41:53;2.35;;;1.65;;
71042;SDS011;58696;52.134;5.500;2022-10-16T05:44:20;1.50;;;1.40;;
71042;SDS011;58696;52.134;5.500;2022-10-16T05:46:47;1.88;;;1.77;;
71042;SDS011;58696;52.134;5.500;2022-10-16T05:49:19;6.03;;;1.90;;
71042;SDS011;58696;52.134;5.500;2022-10-16T05:51:49;3.15;;;1.85;;
71042;SDS011;58696;52.134;5.500;2022-10-16T05:54:18;2.50;;;1.75;;
71042;SDS011;58696;52.134;5.500;2022-10-16T05:59:17;6.38;;;1.98;;
71042;SDS011;58696;52.134;5.500;2022-10-16T06:01:46;5.28;;;2.13;;
71042;SDS011;58696;52.134;5.500;2022-10-16T06:04:15;2.85;;;1.63;;
71042;SDS011;58696;52.134;5.500;2022-10-16T06:06:41;2.60;;;1.85;;
71042;SDS011;58696;52.134;5.500;2022-10-16T06:09:09;3.30;;;2.05;;
71042;SDS011;58696;52.134;5.500;2022-10-16T06:11:36;2.58;;;1.83;;
71042;SDS011;58696;52.134;5.500;2022-10-16T06:17:02;3.63;;;2.60;;
71042;SDS011;58696;52.134;5.500;2022-10-16T06:19:30;3.70;;;2.77;;
71042;SDS011;58696;52.134;5.500;2022-10-16T06:21:58;5.38;;;2.72;;
71042;SDS011;58696;52.134;5.500;2022-10-16T06:24:33;11.88;;;3.20;;
71042;SDS011;58696;52.134;5.500;2022-10-16T06:27:04;8.75;;;3.20;;
71042;SDS011;58696;52.134;5.500;2022-10-16T06:29:31;7.35;;;3.50;;
71042;SDS011;58696;52.134;5.500;2022-10-16T06:32:01;5.05;;;3.22;;
71042;SDS011;58696;52.134;5.500;2022-10-16T06:34:37;4.20;;;2.97;;
71042;SDS011;58696;52.134;5.500;2022-10-16T06:37:10;4.60;;;3.00;;
71042;SDS011;58696;52.134;5.500;2022-10-16T06:39:37;6.47;;;3.05;;
71042;SDS011;58696;52.134;5.500;2022-10-16T06:42:04;4.65;;;2.88;;
71042;SDS011;58696;52.134;5.500;2022-10-16T06:44:30;4.95;;;2.85;;
71042;SDS011;58696;52.134;5.500;2022-10-16T06:46:58;4.68;;;3.10;;
71042;SDS011;58696;52.134;5.500;2022-10-16T06:49:27;6.57;;;2.85;;
71042;SDS011;58696;52.134;5.500;2022-10-16T06:51:54;4.13;;;3.00;;
71042;SDS011;58696;52.134;5.500;2022-10-16T06:54:21;8.55;;;2.75;;
71042;SDS011;58696;52.134;5.500;2022-10-16T06:56:48;8.20;;;3.07;;
71042;SDS011;58696;52.134;5.500;2022-10-16T06:59:18;3.20;;;2.40;;
71042;SDS011;58696;52.134;5.500;2022-10-16T07:01:51;4.53;;;2.70;;
71042;SDS011;58696;52.134;5.500;2022-10-16T07:04:18;5.43;;;3.15;;
71042;SDS011;58696;52.134;5.500;2022-10-16T07:06:49;3.28;;;2.63;;
71042;SDS011;58696;52.134;5.500;2022-10-16T07:09:17;4.72;;;2.45;;
71042;SDS011;58696;52.134;5.500;2022-10-16T07:11:46;5.38;;;2.20;;
71042;SDS011;58696;52.134;5.500;2022-10-16T07:14:17;3.80;;;2.05;;
71042;SDS011;58696;52.134;5.500;2022-10-16T07:16:46;6.18;;;2.30;;
71042;SDS011;58696;52.134;5.500;2022-10-16T07:19:15;3.65;;;2.42;;
71042;SDS011;58696;52.134;5.500;2022-10-16T07:21:45;5.60;;;1.90;;
71042;SDS011;58696;52.134;5.500;2022-10-16T07:24:12;2.70;;;1.65;;
71042;SDS011;58696;52.134;5.500;2022-10-16T07:26:40;6.85;;;2.35;;
71042;SDS011;58696;52.134;5.500;2022-10-16T07:29:16;3.25;;;1.83;;
71042;SDS011;58696;52.134;5.500;2022-10-16T07:31:47;5.32;;;2.30;;
71042;SDS011;58696;52.134;5.500;2022-10-16T07:34:17;3.70;;;1.77;;
71042;SDS011;58696;52.134;5.500;2022-10-16T07:36:48;3.28;;;1.70;;
71042;SDS011;58696;52.134;5.500;2022-10-16T07:39:17;6.18;;;1.42;;
71042;SDS011;58696;52.134;5.500;2022-10-16T07:41:44;2.40;;;1.43;;
71042;SDS011;58696;52.134;5.500;2022-10-16T07:44:16;6.50;;;1.30;;
71042;SDS011;58696;52.134;5.500;2022-10-16T07:46:43;1.55;;;1.42;;
71042;SDS011;58696;52.134;5.500;2022-10-16T07:49:09;4.15;;;1.80;;
71042;SDS011;58696;52.134;5.500;2022-10-16T07:51:39;2.42;;;1.63;;
71042;SDS011;58696;52.134;5.500;2022-10-16T07:54:07;4.50;;;1.70;;
71042;SDS011;58696;52.134;5.500;2022-10-16T07:56:42;2.78;;;1.35;;
71042;SDS011;58696;52.134;5.500;2022-10-16T07:59:10;5.55;;;1.73;;
71042;SDS011;58696;52.134;5.500;2022-10-16T08:01:37;1.90;;;1.25;;
71042;SDS011;58696;52.134;5.500;2022-10-16T08:04:04;6.60;;;1.83;;
71042;SDS011;58696;52.134;5.500;2022-10-16T08:09:01;4.38;;;1.92;;
71042;SDS011;58696;52.134;5.500;2022-10-16T08:11:29;2.35;;;1.70;;
71042;SDS011;58696;52.134;5.500;2022-10-16T08:13:55;6.03;;;1.73;;
71042;SDS011;58696;52.134;5.500;2022-10-16T08:16:22;6.45;;;1.70;;
71042;SDS011;58696;52.134;5.500;2022-10-16T08:18:49;3.13;;;1.98;;
71042;SDS011;58696;52.134;5.500;2022-10-16T08:21:22;4.03;;;1.70;;
71042;SDS011;58696;52.134;5.500;2022-10-16T08:23:50;6.90;;;1.70;;
71042;SDS011;58696;52.134;5.500;2022-10-16T08:26:23;4.65;;;1.50;;
71042;SDS011;58696;52.134;5.500;2022-10-16T08:28:51;4.95;;;1.55;;
71042;SDS011;58696;52.134;5.500;2022-10-16T08:31:20;8.00;;;1.80;;
71042;SDS011;58696;52.134;5.500;2022-10-16T08:33:47;6.30;;;2.05;;
71042;SDS011;58696;52.134;5.500;2022-10-16T08:36:17;2.92;;;1.30;;
71042;SDS011;58696;52.134;5.500;2022-10-16T08:38:48;2.78;;;1.75;;
71042;SDS011;58696;52.134;5.500;2022-10-16T08:44:24;5.65;;;1.70;;
71042;SDS011;58696;52.134;5.500;2022-10-16T08:49:32;3.45;;;1.38;;
71042;SDS011;58696;52.134;5.500;2022-10-16T08:52:04;4.80;;;1.42;;
71042;SDS011;58696;52.134;5.500;2022-10-16T08:54:48;5.10;;;1.45;;
71042;SDS011;58696;52.134;5.500;2022-10-16T08:57:24;3.80;;;1.60;;
71042;SDS011;58696;52.134;5.500;2022-10-16T08:59:52;3.40;;;1.58;;
71042;SDS011;58696;52.134;5.500;2022-10-16T09:02:29;10.88;;;2.33;;
71042;SDS011;58696;52.134;5.500;2022-10-16T09:13:01;6.00;;;1.77;;
71042;SDS011;58696;52.134;5.500;2022-10-16T09:15:50;5.90;;;1.40;;
71042;SDS011;58696;52.134;5.500;2022-10-16T09:21:30;9.07;;;1.90;;
71042;SDS011;58696;52.134;5.500;2022-10-16T09:24:15;9.68;;;1.80;;
71042;SDS011;58696;52.134;5.500;2022-10-16T09:26:53;6.35;;;1.65;;
71042;SDS011;58696;52.134;5.500;2022-10-16T09:29:29;8.63;;;1.88;;
71042;SDS011;58696;52.134;5.500;2022-10-16T09:31:57;9.23;;;2.05;;
71042;SDS011;58696;52.134;5.500;2022-10-16T09:34:42;4.18;;;1.30;;
71042;SDS011;58696;52.134;5.500;2022-10-16T09:37:14;6.03;;;1.63;;
71042;SDS011;58696;52.134;5.500;2022-10-16T09:39:46;7.30;;;1.60;;
71042;SDS011;58696;52.134;5.500;2022-10-16T09:42:33;7.57;;;1.65;;
71042;SDS011;58696;52.134;5.500;2022-10-16T09:45:02;8.02;;;1.67;;
71042;SDS011;58696;52.134;5.500;2022-10-16T09:47:30;5.47;;;1.67;;
71042;SDS011;58696;52.134;5.500;2022-10-16T09:50:03;6.68;;;1.52;;
71042;SDS011;58696;52.134;5.500;2022-10-16T09:52:34;9.98;;;2.22;;
71042;SDS011;58696;52.134;5.500;2022-10-16T09:55:03;11.43;;;2.03;;
71042;SDS011;58696;52.134;5.500;2022-10-16T10:00:18;7.03;;;1.77;;
71042;SDS011;58696;52.134;5.500;2022-10-16T10:02:46;10.25;;;1.77;;
71042;SDS011;58696;52.134;5.500;2022-10-16T10:05:24;5.53;;;1.58;;
71042;SDS011;58696;52.134;5.500;2022-10-16T10:08:12;14.02;;;1.80;;
71042;SDS011;58696;52.134;5.500;2022-10-16T10:10:45;5.43;;;1.60;;
71042;SDS011;58696;52.134;5.500;2022-10-16T10:13:22;8.80;;;1.33;;
71042;SDS011;58696;52.134;5.500;2022-10-16T10:15:51;11.07;;;1.98;;
71042;SDS011;58696;52.134;5.500;2022-10-16T10:18:18;9.05;;;1.75;;
71042;SDS011;58696;52.134;5.500;2022-10-16T10:20:59;8.52;;;1.70;;
71042;SDS011;58696;52.134;5.500;2022-10-16T10:23:34;9.27;;;2.05;;
71042;SDS011;58696;52.134;5.500;2022-10-16T10:26:20;10.40;;;2.17;;
71042;SDS011;58696;52.134;5.500;2022-10-16T10:38:24;7.07;;;1.48;;
71042;SDS011;58696;52.134;5.500;2022-10-16T10:40:52;4.95;;;1.52;;
71042;SDS011;58696;52.134;5.500;2022-10-16T10:43:49;5.97;;;1.58;;
71042;SDS011;58696;52.134;5.500;2022-10-16T10:49:38;5.18;;;1.50;;
71042;SDS011;58696;52.134;5.500;2022-10-16T11:01:34;7.43;;;1.77;;
71042;SDS011;58696;52.134;5.500;2022-10-16T11:04:20;7.85;;;1.70;;
71042;SDS011;58696;52.134;5.500;2022-10-16T11:07:05;7.30;;;2.47;;
71042;SDS011;58696;52.134;5.500;2022-10-16T11:09:43;11.50;;;1.85;;
71042;SDS011;58696;52.134;5.500;2022-10-16T11:12:23;10.70;;;2.03;;
71042;SDS011;58696;52.134;5.500;2022-10-16T11:18:04;4.82;;;1.42;;
71042;SDS011;58696;52.134;5.500;2022-10-16T11:20:56;6.35;;;1.58;;
71042;SDS011;58696;52.134;5.500;2022-10-16T11:23:26;8.63;;;1.60;;
71042;SDS011;58696;52.134;5.500;2022-10-16T11:25:57;8.15;;;1.75;;
71042;SDS011;58696;52.134;5.500;2022-10-16T11:28:32;7.35;;;1.67;;
71042;SDS011;58696;52.134;5.500;2022-10-16T11:39:16;6.50;;;1.67;;
71042;SDS011;58696;52.134;5.500;2022-10-16T11:41:53;8.38;;;2.03;;
71042;SDS011;58696;52.134;5.500;2022-10-16T11:50:31;2.45;;;1.10;;
71042;SDS011;58696;52.134;5.500;2022-10-16T11:55:44;10.38;;;1.73;;
71042;SDS011;58696;52.134;5.500;2022-10-16T12:06:43;8.32;;;1.55;;
71042;SDS011;58696;52.134;5.500;2022-10-16T12:11:54;7.05;;;1.60;;
71042;SDS011;58696;52.134;5.500;2022-10-16T12:14:33;6.25;;;1.58;;
71042;SDS011;58696;52.134;5.500;2022-10-16T12:17:34;5.53;;;1.25;;
71042;SDS011;58696;52.134;5.500;2022-10-16T12:25:53;7.00;;;1.60;;
71042;SDS011;58696;52.134;5.500;2022-10-16T12:28:25;5.15;;;1.52;;
71042;SDS011;58696;52.134;5.500;2022-10-16T12:30:58;4.82;;;1.42;;
71042;SDS011;58696;52.134;5.500;2022-10-16T12:33:34;6.75;;;1.75;;
71042;SDS011;58696;52.134;5.500;2022-10-16T12:36:12;4.03;;;1.42;;
71042;SDS011;58696;52.134;5.500;2022-10-16T12:38:50;9.18;;;1.98;;
71042;SDS011;58696;52.134;5.500;2022-10-16T12:41:26;5.95;;;1.50;;
71042;SDS011;58696;52.134;5.500;2022-10-16T12:43:59;8.30;;;1.98;;
71042;SDS011;58696;52.134;5.500;2022-10-16T12:51:54;10.18;;;1.90;;
71042;SDS011;58696;52.134;5.500;2022-10-16T12:54:40;9.13;;;1.98;;
71042;SDS011;58696;52.134;5.500;2022-10-16T12:57:22;7.32;;;1.73;;
71042;SDS011;58696;52.134;5.500;2022-10-16T13:00:09;12.95;;;1.73;;
71042;SDS011;58696;52.134;5.500;2022-10-16T13:16:14;8.85;;;1.58;;
71042;SDS011;58696;52.134;5.500;2022-10-16T13:21:51;4.90;;;1.75;;
71042;SDS011;58696;52.134;5.500;2022-10-16T13:24:39;7.10;;;1.63;;
71042;SDS011;58696;52.134;5.500;2022-10-16T13:30:12;10.45;;;1.73;;
71042;SDS011;58696;52.134;5.500;2022-10-16T13:32:47;6.93;;;1.70;;
71042;SDS011;58696;52.134;5.500;2022-10-16T13:35:21;11.73;;;2.25;;
71042;SDS011;58696;52.134;5.500;2022-10-16T13:38:13;8.15;;;1.48;;
71042;SDS011;58696;52.134;5.500;2022-10-16T13:40:49;7.75;;;1.80;;
71042;SDS011;58696;52.134;5.500;2022-10-16T13:43:22;7.20;;;1.58;;
71042;SDS011;58696;52.134;5.500;2022-10-16T13:45:56;9.23;;;1.63;;
71042;SDS011;58696;52.134;5.500;2022-10-16T13:48:27;5.60;;;1.70;;
71042;SDS011;58696;52.134;5.500;2022-10-16T13:51:00;7.15;;;1.67;;
71042;SDS011;58696;52.134;5.500;2022-10-16T13:53:35;8.85;;;1.98;;
71042;SDS011;58696;52.134;5.500;2022-10-16T13:56:06;9.60;;;1.95;;
71042;SDS011;58696;52.134;5.500;2022-10-16T13:58:45;8.68;;;1.83;;
71042;SDS011;58696;52.134;5.500;2022-10-16T14:01:18;6.45;;;1.50;;
71042;SDS011;58696;52.134;5.500;2022-10-16T14:04:04;5.50;;;1.38;;
71042;SDS011;58696;52.134;5.500;2022-10-16T14:06:33;6.95;;;1.65;;
71042;SDS011;58696;52.134;5.500;2022-10-16T14:09:12;7.75;;;2.00;;
71042;SDS011;58696;52.134;5.500;2022-10-16T14:11:58;6.97;;;1.77;;
71042;SDS011;58696;52.134;5.500;2022-10-16T14:14:29;6.28;;;2.08;;
71042;SDS011;58696;52.134;5.500;2022-10-16T14:17:18;10.13;;;2.00;;
71042;SDS011;58696;52.134;5.500;2022-10-16T14:19:59;9.75;;;1.85;;
71042;SDS011;58696;52.134;5.500;2022-10-16T14:22:33;10.25;;;1.73;;
71042;SDS011;58696;52.134;5.500;2022-10-16T14:27:56;8.95;;;1.77;;
71042;SDS011;58696;52.134;5.500;2022-10-16T14:30:25;5.97;;;1.42;;
71042;SDS011;58696;52.134;5.500;2022-10-16T14:32:56;7.15;;;1.98;;
71042;SDS011;58696;52.134;5.500;2022-10-16T14:37:56;10.38;;;1.67;;
71042;SDS011;58696;52.134;5.500;2022-10-16T14:40:26;9.63;;;1.85;;
71042;SDS011;58696;52.134;5.500;2022-10-16T14:42:56;10.07;;;1.70;;
71042;SDS011;58696;52.134;5.500;2022-10-16T14:45:26;6.70;;;1.50;;
71042;SDS011;58696;52.134;5.500;2022-10-16T14:48:03;17.20;;;1.77;;
71042;SDS011;58696;52.134;5.500;2022-10-16T14:50:45;7.03;;;1.88;;
71042;SDS011;58696;52.134;5.500;2022-10-16T14:53:16;10.32;;;1.70;;
71042;SDS011;58696;52.134;5.500;2022-10-16T14:55:46;9.80;;;1.67;;
71042;SDS011;58696;52.134;5.500;2022-10-16T14:58:17;13.13;;;2.42;;
71042;SDS011;58696;52.134;5.500;2022-10-16T15:00:46;5.82;;;1.65;;
71042;SDS011;58696;52.134;5.500;2022-10-16T15:03:13;10.65;;;1.80;;
71042;SDS011;58696;52.134;5.500;2022-10-16T15:05:40;8.80;;;1.77;;
71042;SDS011;58696;52.134;5.500;2022-10-16T15:08:07;10.43;;;2.17;;
71042;SDS011;58696;52.134;5.500;2022-10-16T15:10:37;7.40;;;1.50;;
71042;SDS011;58696;52.134;5.500;2022-10-16T15:13:08;10.00;;;1.90;;
71042;SDS011;58696;52.134;5.500;2022-10-16T15:15:39;6.57;;;1.52;;
71042;SDS011;58696;52.134;5.500;2022-10-16T15:18:11;7.20;;;1.65;;
71042;SDS011;58696;52.134;5.500;2022-10-16T15:20:40;5.28;;;1.35;;
71042;SDS011;58696;52.134;5.500;2022-10-16T15:23:14;9.57;;;1.27;;
71042;SDS011;58696;52.134;5.500;2022-10-16T15:25:50;7.78;;;1.52;;
71042;SDS011;58696;52.134;5.500;2022-10-16T15:28:21;12.35;;;1.88;;
71042;SDS011;58696;52.134;5.500;2022-10-16T15:30:50;10.05;;;2.30;;
71042;SDS011;58696;52.134;5.500;2022-10-16T15:33:20;10.00;;;2.20;;
71042;SDS011;58696;52.134;5.500;2022-10-16T15:35:51;7.82;;;1.67;;
71042;SDS011;58696;52.134;5.500;2022-10-16T15:38:21;10.40;;;1.88;;
71042;SDS011;58696;52.134;5.500;2022-10-16T15:40:49;12.60;;;1.85;;
71042;SDS011;58696;52.134;5.500;2022-10-16T15:43:16;6.80;;;1.80;;
71042;SDS011;58696;52.134;5.500;2022-10-16T15:45:43;5.23;;;1.83;;
71042;SDS011;58696;52.134;5.500;2022-10-16T15:48:26;8.85;;;3.05;;
71042;SDS011;58696;52.134;5.500;2022-10-16T15:50:52;12.30;;;4.57;;
71042;SDS011;58696;52.134;5.500;2022-10-16T15:53:19;17.08;;;3.72;;
71042;SDS011;58696;52.134;5.500;2022-10-16T15:55:46;10.45;;;3.10;;
71042;SDS011;58696;52.134;5.500;2022-10-16T15:58:13;20.20;;;5.27;;
71042;SDS011;58696;52.134;5.500;2022-10-16T16:00:39;15.30;;;7.95;;
71042;SDS011;58696;52.134;5.500;2022-10-16T16:03:09;28.52;;;15.20;;
71042;SDS011;58696;52.134;5.500;2022-10-16T16:05:45;45.75;;;25.63;;
71042;SDS011;58696;52.134;5.500;2022-10-16T16:08:12;38.15;;;20.95;;
71042;SDS011;58696;52.134;5.500;2022-10-16T16:10:39;27.37;;;16.90;;
71042;SDS011;58696;52.134;5.500;2022-10-16T16:13:05;15.55;;;6.78;;
71042;SDS011;58696;52.134;5.500;2022-10-16T16:15:32;14.82;;;4.25;;
71042;SDS011;58696;52.134;5.500;2022-10-16T16:18:01;13.88;;;3.63;;
71042;SDS011;58696;52.134;5.500;2022-10-16T16:20:34;21.90;;;3.00;;
71042;SDS011;58696;52.134;5.500;2022-10-16T16:23:01;8.93;;;2.83;;
71042;SDS011;58696;52.134;5.500;2022-10-16T16:25:28;11.65;;;3.45;;
71042;SDS011;58696;52.134;5.500;2022-10-16T16:27:57;8.57;;;3.00;;
71042;SDS011;58696;52.134;5.500;2022-10-16T16:30:24;11.85;;;2.50;;
71042;SDS011;58696;52.134;5.500;2022-10-16T16:32:56;9.02;;;2.70;;
71042;SDS011;58696;52.134;5.500;2022-10-16T16:35:23;22.80;;;11.88;;
71042;SDS011;58696;52.134;5.500;2022-10-16T16:37:50;37.00;;;21.65;;
71042;SDS011;58696;52.134;5.500;2022-10-16T16:40:17;28.55;;;16.05;;
71042;SDS011;58696;52.134;5.500;2022-10-16T16:42:47;16.92;;;9.30;;
71042;SDS011;58696;52.134;5.500;2022-10-16T16:45:16;9.50;;;4.50;;
71042;SDS011;58696;52.134;5.500;2022-10-16T16:47:45;8.55;;;2.92;;
71042;SDS011;58696;52.134;5.500;2022-10-16T16:50:11;11.52;;;2.25;;
71042;SDS011;58696;52.134;5.500;2022-10-16T16:52:40;11.57;;;2.33;;
71042;SDS011;58696;52.134;5.500;2022-10-16T16:55:07;5.70;;;2.20;;
71042;SDS011;58696;52.134;5.500;2022-10-16T16:57:37;12.18;;;2.88;;
71042;SDS011;58696;52.134;5.500;2022-10-16T17:00:04;18.92;;;3.15;;
71042;SDS011;58696;52.134;5.500;2022-10-16T17:02:31;14.73;;;2.50;;
71042;SDS011;58696;52.134;5.500;2022-10-16T17:07:30;24.88;;;13.80;;
71042;SDS011;58696;52.134;5.500;2022-10-16T17:10:01;16.02;;;6.45;;
71042;SDS011;58696;52.134;5.500;2022-10-16T17:12:28;14.65;;;5.18;;
71042;SDS011;58696;52.134;5.500;2022-10-16T17:14:56;10.50;;;4.82;;
71042;SDS011;58696;52.134;5.500;2022-10-16T17:17:22;11.73;;;3.78;;
71042;SDS011;58696;52.134;5.500;2022-10-16T17:19:50;12.25;;;3.55;;
71042;SDS011;58696;52.134;5.500;2022-10-16T17:22:21;12.80;;;3.22;;
71042;SDS011;58696;52.134;5.500;2022-10-16T17:24:48;12.32;;;3.13;;
71042;SDS011;58696;52.134;5.500;2022-10-16T17:27:19;12.40;;;3.25;;
71042;SDS011;58696;52.134;5.500;2022-10-16T17:29:49;22.23;;;4.05;;
71042;SDS011;58696;52.134;5.500;2022-10-16T17:32:22;10.73;;;2.88;;
71042;SDS011;58696;52.134;5.500;2022-10-16T17:34:49;16.40;;;4.10;;
71042;SDS011;58696;52.134;5.500;2022-10-16T17:37:17;11.63;;;3.97;;
71042;SDS011;58696;52.134;5.500;2022-10-16T17:39:48;14.10;;;3.72;;
71042;SDS011;58696;52.134;5.500;2022-10-16T17:42:16;12.65;;;3.78;;